Weather History for PASH - March, 2014

Change the Weather History Date:

Friday, March 21, 2014

  Actual Average Record
Temperature  
Mean Temperature 8 °F -  
Max Temperature 15 °F 5 °F 35 °F (1998)
Min Temperature 0 °F -3 °F -23 °F (2001)
Degree Days  
Heating Degree Days 58    
Moisture  
Dew Point -8 °F    
Average Humidity 57    
Maximum Humidity 100    
Minimum Humidity 21    
Precipitation  
Precipitation 0.00 in - - ()
Sea Level Pressure  
Sea Level Pressure 30.63 in    
Wind  
Wind Speed 10 mph (East)    
Max Wind Speed 14 mph    
Max Gust Speed -    
Visibility 10 miles    
Events      
Averages and records for this station are not official NWS values.
T = Trace of Precipitation, MM = Missing Value Source: NWS Daily Summary

Daily Weather History Graph

Daily Weather History Graph

Search for Another Location

Airport or City:

Trip Planner

Search our weather history database for the weather conditions in past years. The results will help you decide how hot, cold, wet, or windy it might be!

Date:

Astronomy

Mar. 21, 2014 Rise Set
Actual Time 8:59 AM AKDT 9:25 PM AKDT
Civil Twilight 8:07 AM AKDT 10:17 PM AKDT
Nautical Twilight 7:03 AM AKDT 11:22 PM AKDT
Astronomical Twilight 5:46 AM AKDT 12:41 AM AKDT
Moon 3:54 AM AKDT (3/21) 9:59 AM AKDT (3/21)
Length of Visible Light 14h 09m
Length of Day
12h 25m
Waning Gibbous, 74% of the Moon is Illuminated
Mar 21
Waning Gibbous
Mar 23
Last Quarter
Mar 30
New
Apr 7
First Quarter
Apr 14
Full

Hourly Weather History & Observations

Time (AKDT) Temp. Windchill Dew Point Humidity Pressure Visibility Wind Dir Wind Speed Gust Speed Precip Events Conditions
12:16 AM 1.4 °F -12.5 °F -16.6 °F 43% 30.61 in 10.0 mi East 8.1 mph - N/A   Clear
12:36 AM 1.4 °F -11.3 °F -13.0 °F 51% 30.61 in 10.0 mi East 6.9 mph - N/A   Clear
12:56 AM 1.4 °F -11.3 °F -11.2 °F 56% 30.61 in 10.0 mi East 6.9 mph - N/A   Clear
1:16 AM -0.4 °F -15.7 °F -9.4 °F 66% 30.61 in 10.0 mi East 9.2 mph - N/A   Clear
1:36 AM 3.2 °F -12.2 °F - N/A% 30.61 in 10.0 mi East 10.4 mph - N/A   Clear
1:56 AM 3.2 °F -12.2 °F -29.2 °F 21% 30.61 in 10.0 mi East 10.4 mph - N/A   Clear
2:16 AM 3.2 °F -12.2 °F -25.6 °F 25% 30.61 in 10.0 mi East 10.4 mph - N/A   Clear
2:36 AM 1.4 °F -13.5 °F -23.8 °F 30% 30.61 in 10.0 mi East 9.2 mph - N/A   Clear
2:56 AM 1.4 °F -13.5 °F -18.4 °F 39% 30.61 in 10.0 mi ESE 9.2 mph - N/A   Clear
3:16 AM 1.4 °F -12.5 °F -14.8 °F 47% 30.62 in 10.0 mi ESE 8.1 mph - N/A   Clear
3:36 AM -0.4 °F -12.0 °F -14.8 °F 51% 30.62 in 10.0 mi ESE 5.8 mph - N/A   Clear
3:56 AM -0.4 °F -10.4 °F -11.2 °F 60% 30.62 in 10.0 mi SE 4.6 mph - N/A   Clear
4:16 AM -0.4 °F -13.4 °F -5.8 °F 78% 30.62 in 10.0 mi East 6.9 mph - N/A   Clear
4:36 AM 3.2 °F -11.3 °F -2.2 °F 78% 30.62 in 10.0 mi East 9.2 mph - N/A   Clear
4:56 AM 3.2 °F -12.2 °F - N/A% 30.61 in 10.0 mi East 10.4 mph - N/A   Clear
5:16 AM 3.2 °F -11.3 °F -27.4 °F 23% 30.61 in 10.0 mi East 9.2 mph - N/A   Clear
5:36 AM 1.4 °F -13.5 °F -27.4 °F 25% 30.62 in 10.0 mi East 9.2 mph - N/A   Clear
5:56 AM 3.2 °F -13.1 °F -22.0 °F 30% 30.61 in 10.0 mi East 11.5 mph - N/A   Clear
6:16 AM 3.2 °F -12.2 °F -18.4 °F 36% 30.61 in 10.0 mi East 10.4 mph - N/A   Clear
6:36 AM 1.4 °F -14.5 °F -16.6 °F 43% 30.62 in 10.0 mi East 10.4 mph - N/A   Clear
6:56 AM 1.4 °F -12.5 °F -14.8 °F 47% 30.62 in 10.0 mi East 8.1 mph - N/A   Clear
7:16 AM 1.4 °F -14.5 °F -7.6 °F 66% 30.61 in 10.0 mi East 10.4 mph - N/A   Clear
7:36 AM 3.2 °F -13.1 °F -0.4 °F 85% 30.62 in 10.0 mi East 11.5 mph - N/A   Clear
7:56 AM 1.4 °F -14.5 °F -4.0 °F 78% 30.62 in 10.0 mi East 10.4 mph - N/A   Clear
8:16 AM 1.4 °F -15.3 °F -29.2 °F 23% 30.62 in 10.0 mi East 11.5 mph - N/A   Clear
8:36 AM 1.4 °F -16.1 °F -27.4 °F 25% 30.61 in 10.0 mi East 12.7 mph - N/A   Clear
8:56 AM 1.4 °F -15.3 °F -25.6 °F 27% 30.62 in 10.0 mi East 11.5 mph - N/A   Clear
9:16 AM 1.4 °F -16.1 °F -20.2 °F 36% 30.62 in 10.0 mi East 12.7 mph - N/A   Clear
9:36 AM 1.4 °F -13.5 °F -18.4 °F 39% 30.63 in 10.0 mi East 9.2 mph - N/A   Clear
9:56 AM 3.2 °F -11.3 °F -13.0 °F 47% 30.63 in 10.0 mi East 9.2 mph - N/A   Clear
10:16 AM 1.4 °F -14.5 °F -13.0 °F 51% 30.63 in 10.0 mi East 10.4 mph - N/A   Clear
10:36 AM 3.2 °F -13.9 °F -5.8 °F 66% 30.63 in 10.0 mi East 12.7 mph - N/A   Clear
10:56 AM 3.2 °F -14.6 °F -2.2 °F 78% 30.63 in 10.0 mi East 13.8 mph - N/A   Clear
11:16 AM 3.2 °F -14.6 °F 3.2 °F 100% 30.63 in 10.0 mi East 13.8 mph - N/A   Clear
11:36 AM 5.0 °F -9.1 °F -27.4 °F 21% 30.64 in 10.0 mi East 9.2 mph - N/A   Clear
11:56 AM 6.8 °F -5.9 °F -23.8 °F 23% 30.64 in 10.0 mi East 8.1 mph - N/A   Clear
12:16 PM 8.6 °F -4.7 °F -18.4 °F 28% 30.64 in 10.0 mi East 9.2 mph - N/A   Clear
12:36 PM 8.6 °F -2.6 °F -13.0 °F 37% 30.64 in 10.0 mi East 6.9 mph - N/A   Clear
12:56 PM 10.4 °F -4.1 °F -9.4 °F 41% 30.64 in 10.0 mi East 11.5 mph - N/A   Clear
1:16 PM 10.4 °F -4.8 °F -5.8 °F 48% 30.64 in 10.0 mi East 12.7 mph - N/A   Clear
1:36 PM 10.4 °F -2.4 °F -2.2 °F 57% 30.65 in 10.0 mi East 9.2 mph - N/A   Clear
1:56 PM 10.4 °F -0.4 °F 1.4 °F 67% 30.65 in 10.0 mi East 6.9 mph - N/A   Clear
2:16 PM 12.2 °F -1.0 °F -18.4 °F 24% 30.65 in 10.0 mi East 10.4 mph - N/A   Clear
2:36 PM 12.2 °F -0.2 °F -4.0 °F 48% 30.65 in 10.0 mi East 9.2 mph - N/A   Clear
2:56 PM 14.0 °F -0.2 °F -5.8 °F 41% 30.64 in 10.0 mi East 12.7 mph - N/A   Clear
3:16 PM 12.2 °F -1.8 °F - N/A% 30.65 in 10.0 mi East 11.5 mph - N/A   Clear
3:36 PM 12.2 °F -1.0 °F -5.8 °F 45% 30.65 in 10.0 mi East 10.4 mph - N/A   Clear
3:56 PM 12.2 °F 0.7 °F - N/A% 30.65 in 10.0 mi ESE 8.1 mph - N/A   Clear
4:16 PM 14.0 °F -0.2 °F -5.8 °F 41% 30.65 in 10.0 mi East 12.7 mph - N/A   Clear
4:36 PM 14.0 °F 3.9 °F 5.0 °F 67% 30.66 in 10.0 mi ENE 6.9 mph - N/A   Clear
4:56 PM 15.8 °F 4.2 °F 6.8 °F 68% 30.65 in 10.0 mi East 9.2 mph - N/A   Clear
5:16 PM 15.8 °F 3.4 °F 8.6 °F 73% 30.65 in 10.0 mi East 10.4 mph - N/A   Clear
5:36 PM 15.8 °F 3.4 °F 8.6 °F 73% 30.65 in 10.0 mi ENE 10.4 mph - N/A   Clear
5:56 PM 15.8 °F 3.4 °F 8.6 °F 73% 30.65 in 10.0 mi ENE 10.4 mph - N/A   Clear
6:16 PM 15.8 °F 2.7 °F 8.6 °F 73% 30.65 in 10.0 mi ENE 11.5 mph - N/A   Clear
6:36 PM 14.0 °F -0.2 °F 8.6 °F 79% 30.65 in 10.0 mi ENE 12.7 mph - N/A   Clear
6:56 PM 12.2 °F -1.0 °F 6.8 °F 79% 30.65 in 10.0 mi ENE 10.4 mph - N/A   Clear
7:16 PM 14.0 °F -0.2 °F 6.8 °F 73% 30.65 in 10.0 mi East 12.7 mph - N/A   Clear
7:36 PM 12.2 °F -2.5 °F 6.8 °F 79% 30.64 in 10.0 mi East 12.7 mph - N/A   Clear
7:56 PM 12.2 °F -2.5 °F 6.8 °F 79% 30.65 in 10.0 mi East 12.7 mph - N/A   Clear
8:16 PM 12.2 °F -2.5 °F 5.0 °F 73% 30.65 in 10.0 mi East 12.7 mph - N/A   Clear
8:36 PM 10.4 °F -4.1 °F 3.2 °F 73% 30.65 in 10.0 mi East 11.5 mph - N/A   Clear
8:56 PM 8.6 °F -4.7 °F 3.2 °F 79% 30.65 in 10.0 mi ENE 9.2 mph - N/A   Clear
9:16 PM 8.6 °F -4.7 °F 3.2 °F 79% 30.65 in 10.0 mi ENE 9.2 mph - N/A   Clear
9:36 PM 8.6 °F -6.3 °F 1.4 °F 73% 30.64 in 10.0 mi East 11.5 mph - N/A   Clear
9:56 PM 6.8 °F -5.9 °F 1.4 °F 79% 30.65 in 10.0 mi East 8.1 mph - N/A   Clear
10:16 PM 6.8 °F -8.6 °F 3.2 °F 85% 30.64 in 10.0 mi ENE 11.5 mph - N/A   Clear
10:36 PM 6.8 °F -6.9 °F 1.4 °F 79% 30.65 in 10.0 mi East 9.2 mph - N/A   Clear
10:56 PM 3.2 °F -9.1 °F -2.2 °F 78% 30.65 in 10.0 mi East 6.9 mph - N/A   Clear
11:16 PM 3.2 °F -13.1 °F -2.2 °F 78% 30.65 in 10.0 mi ENE 11.5 mph - N/A   Clear
11:36 PM 3.2 °F -12.2 °F -2.2 °F 78% 30.65 in 10.0 mi ENE 10.4 mph - N/A   Clear
11:56 PM 5.0 °F -10.8 °F 1.4 °F 85% 30.65 in 10.0 mi ENE 11.5 mph - N/A   Clear